Time;durP1;ratioP1;P1;durP2;ratioP2;P2;SDS_P1;SDS_P2;PMS_P1;PMS_P2;Temp;Humidity;BMP_temperature;BMP_pressure;BME280_temperature;BME280_humidity;BME280_pressure;Samples;Min_cycle;Max_cycle;Signal;HPM_P1;HPM_P2
2024/01/11 00:00:32;;;;;;;48.90;27.52;;;;;;;;;;5112500;28;20619;-73
2024/01/11 00:02:58;;;;;;;46.42;25.80;;;;;;;;;;5112783;28;20629;-73
2024/01/11 00:05:25;;;;;;;50.85;26.45;;;;;;;;;;5112562;28;20215;-73
2024/01/11 00:07:51;;;;;;;44.45;25.45;;;;;;;;;;5112823;28;20194;-73
2024/01/11 00:10:19;;;;;;;43.00;24.45;;;;;;;;;;5112642;28;20614;-73
2024/01/11 00:12:45;;;;;;;47.45;25.60;;;;;;;;;;5112554;28;20191;-73
2024/01/11 00:15:11;;;;;;;47.20;24.48;;;;;;;;;;5112606;28;20276;-73
2024/01/11 00:17:37;;;;;;;52.00;27.33;;;;;;;;;;5112403;28;20251;-73
2024/01/11 00:20:04;;;;;;;45.75;25.60;;;;;;;;;;5112449;28;20203;-73
2024/01/11 00:22:30;;;;;;;47.63;25.95;;;;;;;;;;5112611;28;20228;-73
2024/01/11 00:24:57;;;;;;;46.17;25.50;;;;;;;;;;5112268;28;20203;-73
2024/01/11 00:27:24;;;;;;;47.60;26.63;;;;;;;;;;5112369;28;20252;-73
2024/01/11 00:29:51;;;;;;;48.28;26.48;;;;;;;;;;5112577;28;20244;-73
2024/01/11 00:32:17;;;;;;;51.67;27.52;;;;;;;;;;5112338;28;20226;-73
2024/01/11 00:34:43;;;;;;;48.28;25.45;;;;;;;;;;5112202;28;22445;-73
2024/01/11 00:37:09;;;;;;;46.45;25.50;;;;;;;;;;5112547;28;20215;-73
2024/01/11 00:39:35;;;;;;;45.67;25.95;;;;;;;;;;5112496;28;20211;-73
2024/01/11 00:42:02;;;;;;;45.85;25.25;;;;;;;;;;5112326;27;20191;-73
2024/01/11 00:44:29;;;;;;;50.05;27.05;;;;;;;;;;5112250;28;20191;-73
2024/01/11 00:46:56;;;;;;;49.72;26.02;;;;;;;;;;5112001;28;20215;-73
2024/01/11 00:49:22;;;;;;;47.38;27.00;;;;;;;;;;5112018;28;20256;-73
2024/01/11 00:51:48;;;;;;;50.75;26.95;;;;;;;;;;5112084;28;20195;-73
2024/01/11 00:54:14;;;;;;;44.83;25.63;;;;;;;;;;5112040;28;20194;-73
2024/01/11 00:56:41;;;;;;;51.85;26.65;;;;;;;;;;5111688;28;20223;-73
2024/01/11 00:59:07;;;;;;;52.08;26.90;;;;;;;;;;5111883;28;20194;-73
2024/01/11 01:01:35;;;;;;;51.90;27.40;;;;;;;;;;5111810;28;20203;-73
2024/01/11 01:04:01;;;;;;;51.78;26.90;;;;;;;;;;5111825;28;20667;-73
2024/01/11 01:06:27;;;;;;;57.67;28.83;;;;;;;;;;5111825;28;20211;-73
2024/01/11 01:08:54;;;;;;;49.95;26.50;;;;;;;;;;5112131;28;20517;-73
2024/01/11 01:11:20;;;;;;;51.97;26.63;;;;;;;;;;5111902;28;20228;-73
2024/01/11 01:13:47;;;;;;;51.10;27.40;;;;;;;;;;5111696;28;20203;-73
2024/01/11 01:16:14;;;;;;;52.25;27.20;;;;;;;;;;5111674;28;20223;-73
2024/01/11 01:18:41;;;;;;;55.33;27.85;;;;;;;;;;5111715;28;20234;-73
2024/01/11 01:21:07;;;;;;;53.60;27.30;;;;;;;;;;5111788;28;20209;-73
2024/01/11 01:23:34;;;;;;;48.10;26.48;;;;;;;;;;5111669;28;20226;-73
2024/01/11 01:26:00;;;;;;;48.58;27.10;;;;;;;;;;5111438;28;20215;-73
2024/01/11 01:28:26;;;;;;;53.42;28.02;;;;;;;;;;5111883;28;20248;-73
2024/01/11 01:30:52;;;;;;;50.28;27.75;;;;;;;;;;5111524;28;20196;-73
2024/01/11 01:33:18;;;;;;;54.03;27.63;;;;;;;;;;5111593;28;20199;-73
2024/01/11 01:35:46;;;;;;;50.92;26.38;;;;;;;;;;5111237;28;20272;-73
2024/01/11 01:38:13;;;;;;;48.92;25.75;;;;;;;;;;5111480;28;20250;-73
2024/01/11 01:40:39;;;;;;;50.42;27.38;;;;;;;;;;5111685;28;20203;-73
2024/01/11 01:43:07;;;;;;;51.17;26.70;;;;;;;;;;5111599;28;20199;-73
2024/01/11 01:45:33;;;;;;;52.38;27.20;;;;;;;;;;5111264;28;20593;-73
2024/01/11 01:48:00;;;;;;;45.42;26.52;;;;;;;;;;5111563;28;20228;-73
2024/01/11 01:50:26;;;;;;;50.97;26.05;;;;;;;;;;5111538;28;20195;-73
2024/01/11 01:52:54;;;;;;;48.53;26.52;;;;;;;;;;5111466;28;20222;-73
2024/01/11 01:55:21;;;;;;;50.95;26.88;;;;;;;;;;5111359;28;20851;-73
2024/01/11 01:57:47;;;;;;;52.45;25.85;;;;;;;;;;5111357;28;20264;-73
2024/01/11 02:00:14;;;;;;;51.25;26.83;;;;;;;;;;5111393;28;20200;-73
2024/01/11 02:02:41;;;;;;;50.97;26.05;;;;;;;;;;5111512;28;20203;-73
2024/01/11 02:05:07;;;;;;;50.85;26.92;;;;;;;;;;5111295;28;20195;-74
2024/01/11 02:07:34;;;;;;;54.03;28.20;;;;;;;;;;5111120;28;20584;-73
2024/01/11 02:10:02;;;;;;;49.97;27.10;;;;;;;;;;5114500;28;20248;-72
2024/01/11 02:12:29;;;;;;;52.13;26.83;;;;;;;;;;5114808;28;20222;-72
2024/01/11 02:14:56;;;;;;;51.05;27.05;;;;;;;;;;5114601;28;20264;-72
2024/01/11 02:17:22;;;;;;;54.22;27.38;;;;;;;;;;5115162;28;20206;-73
2024/01/11 02:19:48;;;;;;;53.40;27.15;;;;;;;;;;5114945;28;20199;-73
2024/01/11 02:22:19;;;;;;;53.08;28.02;;;;;;;;;;5114762;28;20351;-72
2024/01/11 02:24:47;;;;;;;54.92;27.20;;;;;;;;;;5114506;28;20211;-73
2024/01/11 02:27:13;;;;;;;49.08;26.52;;;;;;;;;;5114490;27;20195;-73
2024/01/11 02:29:39;;;;;;;55.05;27.33;;;;;;;;;;5114403;27;20199;-73
2024/01/11 02:32:06;;;;;;;52.13;25.60;;;;;;;;;;5114591;28;20194;-73
2024/01/11 02:34:32;;;;;;;51.53;27.00;;;;;;;;;;5114483;28;20210;-73
2024/01/11 02:36:59;;;;;;;52.80;27.33;;;;;;;;;;5114241;28;20211;-74
2024/01/11 02:39:26;;;;;;;50.38;25.95;;;;;;;;;;5114460;28;20613;-74
2024/01/11 02:41:54;;;;;;;53.10;26.23;;;;;;;;;;5114100;28;20252;-74
2024/01/11 02:44:20;;;;;;;57.13;26.30;;;;;;;;;;5114518;28;20203;-74
2024/01/11 02:46:46;;;;;;;50.85;25.67;;;;;;;;;;5114288;27;20272;-74
2024/01/11 02:49:12;;;;;;;49.80;26.05;;;;;;;;;;5114373;28;20644;-74
2024/01/11 02:51:39;;;;;;;53.40;27.25;;;;;;;;;;5114005;28;20583;-74
2024/01/11 02:54:05;;;;;;;51.53;26.52;;;;;;;;;;5114212;28;20203;-74
2024/01/11 02:56:32;;;;;;;49.75;25.73;;;;;;;;;;5113976;28;20226;-74
2024/01/11 02:58:59;;;;;;;49.80;26.23;;;;;;;;;;5114011;27;20199;-74
2024/01/11 03:01:25;;;;;;;53.95;26.95;;;;;;;;;;5114087;28;20228;-74
2024/01/11 03:03:53;;;;;;;46.03;25.52;;;;;;;;;;5114089;28;20229;-73
2024/01/11 03:06:21;;;;;;;44.47;25.15;;;;;;;;;;5115228;28;20297;-73
2024/01/11 03:08:47;;;;;;;50.13;26.20;;;;;;;;;;5115551;28;20356;-73
2024/01/11 03:11:14;;;;;;;51.10;27.55;;;;;;;;;;5113734;28;20698;-73
2024/01/11 03:13:40;;;;;;;54.70;26.63;;;;;;;;;;5113763;27;20224;-73
2024/01/11 03:16:07;;;;;;;51.10;27.70;;;;;;;;;;5113356;27;20712;-73
2024/01/11 03:18:34;;;;;;;52.33;26.90;;;;;;;;;;5113655;28;20670;-73
2024/01/11 03:21:00;;;;;;;52.33;26.60;;;;;;;;;;5113355;28;20667;-73
2024/01/11 03:23:26;;;;;;;49.63;27.17;;;;;;;;;;5113508;28;20720;-73
2024/01/11 03:25:52;;;;;;;55.72;27.42;;;;;;;;;;5113642;28;20727;-72
2024/01/11 03:28:19;;;;;;;53.92;26.27;;;;;;;;;;5114020;28;20195;-73
2024/01/11 03:30:45;;;;;;;52.83;26.80;;;;;;;;;;5113570;28;20307;-72
2024/01/11 03:33:12;;;;;;;50.25;26.73;;;;;;;;;;5113307;28;20199;-73
2024/01/11 03:35:40;;;;;;;52.22;27.38;;;;;;;;;;5113350;28;20222;-73
2024/01/11 03:38:06;;;;;;;50.83;26.67;;;;;;;;;;5111816;28;20191;-74
2024/01/11 03:40:32;;;;;;;51.05;27.20;;;;;;;;;;5113132;28;20763;-74
2024/01/11 03:42:59;;;;;;;53.72;27.02;;;;;;;;;;5112868;28;20557;-73
2024/01/11 03:45:26;;;;;;;54.30;28.98;;;;;;;;;;5113306;28;20211;-74
2024/01/11 03:47:52;;;;;;;52.85;26.35;;;;;;;;;;5113018;28;20203;-74
2024/01/11 03:50:19;;;;;;;50.60;26.92;;;;;;;;;;5113402;28;20255;-74
2024/01/11 03:52:45;;;;;;;52.80;28.35;;;;;;;;;;5112766;28;20289;-73
2024/01/11 03:55:11;;;;;;;54.35;28.42;;;;;;;;;;5112904;27;20293;-73
2024/01/11 03:57:37;;;;;;;49.25;26.13;;;;;;;;;;5112922;28;20199;-73
2024/01/11 04:00:05;;;;;;;52.10;27.38;;;;;;;;;;5112790;28;20205;-73
2024/01/11 04:02:32;;;;;;;51.30;26.42;;;;;;;;;;5113085;28;20203;-73
2024/01/11 04:04:58;;;;;;;52.70;26.77;;;;;;;;;;5112546;28;20195;-73
2024/01/11 04:07:27;;;;;;;53.05;26.27;;;;;;;;;;5112471;28;20191;-73
2024/01/11 04:09:53;;;;;;;51.33;27.13;;;;;;;;;;5112765;28;20702;-73
2024/01/11 04:12:20;;;;;;;52.13;26.63;;;;;;;;;;5112623;27;20202;-73
2024/01/11 04:14:46;;;;;;;47.67;26.05;;;;;;;;;;5112378;28;20683;-73
2024/01/11 04:17:12;;;;;;;51.40;27.30;;;;;;;;;;5112195;28;20633;-73
2024/01/11 04:19:38;;;;;;;51.03;27.73;;;;;;;;;;5112428;27;20728;-73
2024/01/11 04:22:05;;;;;;;47.17;25.10;;;;;;;;;;5112743;28;23053;-73
2024/01/11 04:24:32;;;;;;;54.00;27.25;;;;;;;;;;5113884;27;20615;-73
2024/01/11 04:26:59;;;;;;;53.30;26.95;;;;;;;;;;5112301;28;20253;-73
2024/01/11 04:29:25;;;;;;;50.05;26.88;;;;;;;;;;5112688;28;20203;-73
2024/01/11 04:31:51;;;;;;;53.50;27.73;;;;;;;;;;5112026;28;20203;-73
2024/01/11 04:34:17;;;;;;;48.45;25.77;;;;;;;;;;5112401;28;20240;-73
2024/01/11 04:36:43;;;;;;;53.50;27.70;;;;;;;;;;5112630;28;20674;-73
2024/01/11 04:39:11;;;;;;;51.45;26.65;;;;;;;;;;5123343;28;20199;-73
2024/01/11 04:41:39;;;;;;;55.90;28.15;;;;;;;;;;5133251;27;20198;-72
2024/01/11 04:44:05;;;;;;;53.33;27.08;;;;;;;;;;5133179;28;20183;-73
2024/01/11 04:46:31;;;;;;;56.10;28.23;;;;;;;;;;5132929;28;20256;-72
2024/01/11 04:48:58;;;;;;;51.78;27.10;;;;;;;;;;5132298;28;20179;-72
2024/01/11 04:51:24;;;;;;;53.72;27.83;;;;;;;;;;5112084;28;20211;-72
2024/01/11 04:53:50;;;;;;;52.72;27.15;;;;;;;;;;5111967;28;20199;-73
2024/01/11 04:56:17;;;;;;;54.88;28.67;;;;;;;;;;5112019;28;20237;-73
2024/01/11 04:58:45;;;;;;;54.38;27.95;;;;;;;;;;5112087;28;20203;-73
2024/01/11 05:01:12;;;;;;;52.90;27.60;;;;;;;;;;5111682;28;20252;-73
2024/01/11 05:03:39;;;;;;;52.45;26.25;;;;;;;;;;5111820;28;20203;-74
2024/01/11 05:06:05;;;;;;;52.10;27.55;;;;;;;;;;5111669;28;20226;-74
2024/01/11 05:08:31;;;;;;;55.45;27.95;;;;;;;;;;5111672;28;20636;-74
2024/01/11 05:10:58;;;;;;;51.75;26.98;;;;;;;;;;5111777;28;20199;-74
2024/01/11 05:13:24;;;;;;;53.20;27.10;;;;;;;;;;5111977;28;20206;-74
2024/01/11 05:15:52;;;;;;;52.30;26.50;;;;;;;;;;5111471;28;20577;-74
2024/01/11 05:18:18;;;;;;;50.20;26.52;;;;;;;;;;5112152;28;20195;-74
2024/01/11 05:20:44;;;;;;;49.05;26.65;;;;;;;;;;5111705;28;20199;-74
2024/01/11 05:23:11;;;;;;;50.88;27.60;;;;;;;;;;5111864;28;20203;-74
2024/01/11 05:25:37;;;;;;;52.72;27.35;;;;;;;;;;5111558;28;20752;-74
2024/01/11 05:28:04;;;;;;;53.33;27.83;;;;;;;;;;5111603;28;20324;-74
2024/01/11 05:30:30;;;;;;;53.45;29.08;;;;;;;;;;5111646;28;20252;-74
2024/01/11 05:32:58;;;;;;;53.05;26.52;;;;;;;;;;5111641;28;20206;-74
2024/01/11 05:35:27;;;;;;;58.08;27.88;;;;;;;;;;5111562;28;20218;-74
2024/01/11 05:37:54;;;;;;;51.20;27.10;;;;;;;;;;5111406;28;20253;-74
2024/01/11 05:40:20;;;;;;;55.50;27.90;;;;;;;;;;5111661;28;20285;-74
2024/01/11 05:42:47;;;;;;;51.08;27.98;;;;;;;;;;5111354;28;20199;-74
2024/01/11 05:45:16;;;;;;;50.20;26.73;;;;;;;;;;5114719;28;20276;-74
2024/01/11 05:47:42;;;;;;;49.38;26.40;;;;;;;;;;5115444;28;20195;-75
2024/01/11 05:50:11;;;;;;;53.92;26.77;;;;;;;;;;5115321;28;20195;-75
2024/01/11 05:52:37;;;;;;;50.15;26.08;;;;;;;;;;5115366;28;20199;-74
2024/01/11 05:55:04;;;;;;;50.33;27.80;;;;;;;;;;5115829;28;20199;-74
2024/01/11 05:57:31;;;;;;;55.05;26.63;;;;;;;;;;5115721;28;20207;-74
2024/01/11 05:59:57;;;;;;;49.42;27.50;;;;;;;;;;5115849;28;20199;-75
2024/01/11 06:02:23;;;;;;;49.20;27.13;;;;;;;;;;5115129;28;20244;-74
2024/01/11 06:04:50;;;;;;;50.58;26.58;;;;;;;;;;5115290;28;20663;-75
2024/01/11 06:07:17;;;;;;;52.00;26.67;;;;;;;;;;5114944;28;20326;-75
2024/01/11 06:09:44;;;;;;;49.05;26.13;;;;;;;;;;5115213;28;20207;-75
2024/01/11 06:12:10;;;;;;;54.95;28.20;;;;;;;;;;5114839;28;20231;-75
2024/01/11 06:14:36;;;;;;;49.40;25.92;;;;;;;;;;5115145;28;20195;-75
2024/01/11 06:17:03;;;;;;;54.05;28.45;;;;;;;;;;5114511;28;20714;-74
2024/01/11 06:19:29;;;;;;;52.83;26.80;;;;;;;;;;5115049;28;20245;-76
2024/01/11 06:21:55;;;;;;;53.13;27.63;;;;;;;;;;5114909;28;20206;-76
2024/01/11 06:24:23;;;;;;;54.83;27.35;;;;;;;;;;5114952;28;20195;-76
2024/01/11 06:26:49;;;;;;;52.92;26.83;;;;;;;;;;5114546;28;20614;-75
2024/01/11 06:29:15;;;;;;;54.55;27.40;;;;;;;;;;5114788;28;20201;-75
2024/01/11 06:31:42;;;;;;;55.47;27.73;;;;;;;;;;5114994;28;20199;-74
2024/01/11 06:34:08;;;;;;;52.78;27.23;;;;;;;;;;5114710;28;20252;-74
2024/01/11 06:36:34;;;;;;;56.13;26.50;;;;;;;;;;5114215;28;20687;-74
2024/01/11 06:39:01;;;;;;;51.03;27.05;;;;;;;;;;5114228;28;20712;-74
2024/01/11 06:41:28;;;;;;;50.20;26.38;;;;;;;;;;5114295;28;20196;-74
2024/01/11 06:43:54;;;;;;;55.20;28.30;;;;;;;;;;5114403;27;20667;-75
2024/01/11 06:46:21;;;;;;;57.50;29.05;;;;;;;;;;5113896;28;20733;-75
2024/01/11 06:48:49;;;;;;;51.80;27.58;;;;;;;;;;5114304;28;20286;-75
2024/01/11 06:51:15;;;;;;;53.08;28.48;;;;;;;;;;5113867;28;20739;-75
2024/01/11 06:53:41;;;;;;;55.90;28.00;;;;;;;;;;5114061;28;20652;-63
2024/01/11 06:56:14;;;;;;;59.88;29.70;;;;;;;;;;5113192;28;20265;-62
2024/01/11 06:58:41;;;;;;;50.90;28.70;;;;;;;;;;5114205;28;20207;-62
2024/01/11 07:01:08;;;;;;;58.00;29.13;;;;;;;;;;5113653;28;20203;-63
2024/01/11 07:03:34;;;;;;;59.00;29.80;;;;;;;;;;5113916;28;20249;-62
2024/01/11 07:06:00;;;;;;;57.60;28.65;;;;;;;;;;5113468;28;20223;-62
2024/01/11 07:08:27;;;;;;;55.63;28.23;;;;;;;;;;5113766;27;20199;-62
2024/01/11 07:10:53;;;;;;;59.72;31.20;;;;;;;;;;5113787;28;20252;-61
2024/01/11 07:13:19;;;;;;;58.53;30.20;;;;;;;;;;5113829;28;20195;-61
2024/01/11 07:15:47;;;;;;;51.03;28.27;;;;;;;;;;5113601;28;20227;-62
2024/01/11 07:18:14;;;;;;;53.90;28.27;;;;;;;;;;5113374;28;20308;-62
2024/01/11 07:20:40;;;;;;;52.13;25.77;;;;;;;;;;5110324;28;20286;-61
2024/01/11 07:23:06;;;;;;;53.72;27.23;;;;;;;;;;5103072;28;20203;-61
2024/01/11 07:25:34;;;;;;;53.45;29.13;;;;;;;;;;5107581;28;20271;-61
2024/01/11 07:28:00;;;;;;;56.97;30.75;;;;;;;;;;5107264;28;20207;-61
2024/01/11 07:30:27;;;;;;;54.58;28.13;;;;;;;;;;5107612;28;20288;-62
2024/01/11 07:32:54;;;;;;;53.10;29.00;;;;;;;;;;5107286;28;20215;-61
2024/01/11 07:35:21;;;;;;;50.40;27.65;;;;;;;;;;5106895;28;20221;-61
2024/01/11 07:37:47;;;;;;;54.03;28.08;;;;;;;;;;5105131;27;20774;-61
2024/01/11 07:40:13;;;;;;;49.05;26.70;;;;;;;;;;5103894;28;20211;-61
2024/01/11 07:42:40;;;;;;;54.85;28.50;;;;;;;;;;5104294;28;20284;-61
2024/01/11 07:45:09;;;;;;;54.00;28.27;;;;;;;;;;5104883;28;20253;-61
2024/01/11 07:47:36;;;;;;;47.55;26.63;;;;;;;;;;5103949;28;20199;-62
2024/01/11 07:50:04;;;;;;;56.08;29.15;;;;;;;;;;5104601;28;20750;-61
2024/01/11 07:52:30;;;;;;;53.78;28.00;;;;;;;;;;5103523;28;20671;-60
2024/01/11 07:54:57;;;;;;;55.35;28.88;;;;;;;;;;5104467;28;20211;-60
2024/01/11 07:57:24;;;;;;;52.58;28.13;;;;;;;;;;5103382;28;20218;-62
2024/01/11 07:59:50;;;;;;;55.67;29.08;;;;;;;;;;5105259;28;20207;-63
2024/01/11 08:02:16;;;;;;;58.63;30.08;;;;;;;;;;5105371;28;20215;-61
2024/01/11 08:04:42;;;;;;;58.75;28.55;;;;;;;;;;5104765;28;20253;-62
2024/01/11 08:07:10;;;;;;;56.63;30.45;;;;;;;;;;5104956;28;20227;-62
2024/01/11 08:09:38;;;;;;;62.28;32.45;;;;;;;;;;5105068;28;20213;-62
2024/01/11 08:12:05;;;;;;;61.95;30.35;;;;;;;;;;5105459;28;20207;-62
2024/01/11 08:14:31;;;;;;;60.65;32.67;;;;;;;;;;5105874;28;20203;-62
2024/01/11 08:16:58;;;;;;;64.15;32.15;;;;;;;;;;5105844;28;20226;-61
2024/01/11 08:19:24;;;;;;;64.93;32.42;;;;;;;;;;5104989;28;20218;-61
2024/01/11 08:21:50;;;;;;;57.47;31.00;;;;;;;;;;5105027;28;20264;-62
2024/01/11 08:24:18;;;;;;;60.13;31.33;;;;;;;;;;5105175;28;20203;-61
2024/01/11 08:26:44;;;;;;;65.28;32.03;;;;;;;;;;5104597;28;20235;-62
2024/01/11 08:29:11;;;;;;;65.38;32.75;;;;;;;;;;5104293;27;20228;-63
2024/01/11 08:31:37;;;;;;;62.33;31.42;;;;;;;;;;5106124;28;20223;-62
2024/01/11 08:34:04;;;;;;;62.35;32.13;;;;;;;;;;5105336;28;20934;-62
2024/01/11 08:36:32;;;;;;;62.78;31.02;;;;;;;;;;5105041;28;20223;-61
2024/01/11 08:38:58;;;;;;;61.17;30.67;;;;;;;;;;5099614;28;20218;-62
2024/01/11 08:41:26;;;;;;;57.58;30.27;;;;;;;;;;5104545;28;20260;-62
2024/01/11 08:43:53;;;;;;;63.05;31.73;;;;;;;;;;5104919;28;20211;-64
2024/01/11 08:46:24;;;;;;;66.18;31.60;;;;;;;;;;5104737;28;20215;-61
2024/01/11 08:48:50;;;;;;;67.72;32.45;;;;;;;;;;5105054;28;20203;-60
2024/01/11 08:51:16;;;;;;;64.88;31.73;;;;;;;;;;5104740;28;20284;-60
2024/01/11 08:53:42;;;;;;;56.55;31.02;;;;;;;;;;5104308;28;20319;-59
2024/01/11 08:56:09;;;;;;;59.05;33.78;;;;;;;;;;5104206;28;20772;-59
2024/01/11 08:58:36;;;;;;;62.15;32.42;;;;;;;;;;5104197;28;20645;-59
2024/01/11 09:01:03;;;;;;;69.80;33.50;;;;;;;;;;5103614;28;20221;-62
2024/01/11 09:03:30;;;;;;;63.40;32.17;;;;;;;;;;5104469;28;20211;-63
2024/01/11 09:05:57;;;;;;;56.17;30.50;;;;;;;;;;5104480;28;20223;-62
2024/01/11 09:08:23;;;;;;;68.68;33.17;;;;;;;;;;5104469;28;20218;-62
2024/01/11 09:10:49;;;;;;;68.10;32.13;;;;;;;;;;5103990;28;20207;-62
2024/01/11 09:13:16;;;;;;;65.85;32.03;;;;;;;;;;5104547;28;20557;-62
2024/01/11 09:15:44;;;;;;;70.95;30.80;;;;;;;;;;5104491;28;20309;-61
2024/01/11 09:18:10;;;;;;;65.60;29.77;;;;;;;;;;5106129;28;20270;-62
2024/01/11 09:20:37;;;;;;;62.85;31.13;;;;;;;;;;5108714;27;20207;-61
2024/01/11 09:23:03;;;;;;;65.10;32.00;;;;;;;;;;5108491;28;20284;-60
2024/01/11 09:25:29;;;;;;;65.30;31.65;;;;;;;;;;5108347;28;20609;-62
2024/01/11 09:27:56;;;;;;;57.92;30.98;;;;;;;;;;5107550;28;20600;-61
2024/01/11 09:30:22;;;;;;;63.78;32.47;;;;;;;;;;5107922;28;20211;-61
2024/01/11 09:32:49;;;;;;;59.30;29.90;;;;;;;;;;5108306;28;20203;-62
2024/01/11 09:35:16;;;;;;;61.63;31.60;;;;;;;;;;5108591;28;20272;-61
2024/01/11 09:37:42;;;;;;;59.55;30.27;;;;;;;;;;5108910;28;20223;-61
2024/01/11 09:40:10;;;;;;;59.55;31.80;;;;;;;;;;5108767;28;20194;-61
2024/01/11 09:42:36;;;;;;;59.25;30.60;;;;;;;;;;5107797;28;20199;-62
2024/01/11 09:45:05;;;;;;;60.92;32.10;;;;;;;;;;5108401;27;20291;-61
2024/01/11 09:47:32;;;;;;;64.40;32.20;;;;;;;;;;5107555;27;20202;-61
2024/01/11 09:50:02;;;;;;;60.05;32.22;;;;;;;;;;5108727;28;20211;-60
2024/01/11 09:52:31;;;;;;;61.00;31.88;;;;;;;;;;5107812;28;20289;-61
2024/01/11 09:54:57;;;;;;;56.10;30.92;;;;;;;;;;5108432;28;20203;-60
2024/01/11 09:57:25;;;;;;;62.35;32.88;;;;;;;;;;5106796;28;20280;-60
2024/01/11 09:59:53;;;;;;;62.20;32.63;;;;;;;;;;5107930;28;20582;-63
2024/01/11 10:02:20;;;;;;;61.55;32.53;;;;;;;;;;5108107;27;20638;-61
2024/01/11 10:04:46;;;;;;;60.78;32.00;;;;;;;;;;5108072;28;20566;-60
2024/01/11 10:07:14;;;;;;;62.35;32.72;;;;;;;;;;5108326;28;20706;-62
2024/01/11 10:09:41;;;;;;;63.50;32.72;;;;;;;;;;5107609;28;20271;-61
2024/01/11 10:12:08;;;;;;;64.85;33.33;;;;;;;;;;5107677;28;20203;-62
2024/01/11 10:14:35;;;;;;;57.92;31.42;;;;;;;;;;5106970;28;20339;-61
2024/01/11 10:17:01;;;;;;;55.88;32.00;;;;;;;;;;5107452;28;20219;-61
2024/01/11 10:19:27;;;;;;;68.05;33.25;;;;;;;;;;5107885;28;20214;-62
2024/01/11 10:21:54;;;;;;;70.53;34.58;;;;;;;;;;5107422;28;20740;-63
2024/01/11 10:24:25;;;;;;;61.90;33.03;;;;;;;;;;5107133;28;20241;-61
2024/01/11 10:26:52;;;;;;;63.65;34.72;;;;;;;;;;5107207;28;20218;-61
2024/01/11 10:29:18;;;;;;;64.60;34.00;;;;;;;;;;5106590;28;20599;-61
2024/01/11 10:31:44;;;;;;;64.63;34.92;;;;;;;;;;5107137;28;20214;-63
2024/01/11 10:34:10;;;;;;;62.80;33.63;;;;;;;;;;5107319;27;20203;-61
2024/01/11 10:36:37;;;;;;;64.53;33.28;;;;;;;;;;5106793;28;20719;-63
2024/01/11 10:39:05;;;;;;;68.13;34.03;;;;;;;;;;5106503;28;20221;-61
2024/01/11 10:41:38;;;;;;;61.42;32.42;;;;;;;;;;5105728;28;20203;-60
2024/01/11 10:44:04;;;;;;;60.03;32.00;;;;;;;;;;5105291;28;20253;-60
2024/01/11 10:46:32;;;;;;;56.35;32.92;;;;;;;;;;5106248;28;20222;-60
2024/01/11 10:49:00;;;;;;;60.88;33.60;;;;;;;;;;5106975;28;20199;-60
2024/01/11 10:51:28;;;;;;;65.07;33.88;;;;;;;;;;5106210;28;20630;-61
2024/01/11 10:53:55;;;;;;;59.03;31.77;;;;;;;;;;5107157;28;20210;-60
2024/01/11 10:56:22;;;;;;;59.53;33.22;;;;;;;;;;5106704;28;20219;-61
2024/01/11 10:58:50;;;;;;;61.35;33.13;;;;;;;;;;5103378;28;20211;-61
2024/01/11 11:01:18;;;;;;;66.78;33.63;;;;;;;;;;5106916;28;20208;-61
2024/01/11 11:03:45;;;;;;;62.25;34.70;;;;;;;;;;5106274;28;20276;-60
2024/01/11 11:06:12;;;;;;;61.88;33.88;;;;;;;;;;5106276;28;20324;-61
2024/01/11 11:08:38;;;;;;;57.85;32.22;;;;;;;;;;5106534;28;20572;-61
2024/01/11 11:11:06;;;;;;;57.55;32.15;;;;;;;;;;5106635;28;20283;-60
2024/01/11 11:13:32;;;;;;;62.22;32.72;;;;;;;;;;5106648;28;20302;-60
2024/01/11 11:16:00;;;;;;;60.15;32.90;;;;;;;;;;5106318;27;20267;-60
2024/01/11 11:18:26;;;;;;;60.03;31.98;;;;;;;;;;5106248;28;20295;-60
2024/01/11 11:20:54;;;;;;;58.97;32.45;;;;;;;;;;5106567;28;20256;-61
2024/01/11 11:23:20;;;;;;;63.22;33.70;;;;;;;;;;5106743;28;20944;-61
2024/01/11 11:25:47;;;;;;;64.10;34.83;;;;;;;;;;5106490;28;20742;-61
2024/01/11 11:28:14;;;;;;;60.47;34.55;;;;;;;;;;5105987;27;20203;-61
2024/01/11 11:30:41;;;;;;;63.00;33.33;;;;;;;;;;5106247;28;20824;-62
2024/01/11 11:33:16;;;;;;;79.40;38.55;;;;;;;;;;5105609;28;20199;-62
2024/01/11 11:35:42;;;;;;;62.55;34.92;;;;;;;;;;5105960;28;20722;-61
2024/01/11 11:38:09;;;;;;;60.03;33.67;;;;;;;;;;5106031;28;20720;-61
2024/01/11 11:40:39;;;;;;;58.63;33.40;;;;;;;;;;5106075;28;20551;-62
2024/01/11 11:43:05;;;;;;;56.05;32.92;;;;;;;;;;5105825;28;20199;-61
2024/01/11 11:45:31;;;;;;;57.22;32.88;;;;;;;;;;5105792;28;20215;-62
2024/01/11 11:47:58;;;;;;;59.30;32.78;;;;;;;;;;5106346;28;20207;-62
2024/01/11 11:50:26;;;;;;;65.72;32.20;;;;;;;;;;5105825;28;20203;-63
2024/01/11 11:52:54;;;;;;;57.33;32.95;;;;;;;;;;5105960;28;20252;-62
2024/01/11 11:55:21;;;;;;;53.60;32.42;;;;;;;;;;5105911;28;20215;-61
2024/01/11 11:57:48;;;;;;;51.67;32.45;;;;;;;;;;5104754;28;20260;-60
2024/01/11 12:00:16;;;;;;;60.28;33.85;;;;;;;;;;5105461;28;20348;-64
2024/01/11 12:02:42;;;;;;;51.95;31.50;;;;;;;;;;5104935;28;20215;-61
2024/01/11 12:05:09;;;;;;;56.70;33.42;;;;;;;;;;5105709;28;20231;-62
2024/01/11 12:07:36;;;;;;;59.75;33.47;;;;;;;;;;5105484;28;20298;-63
2024/01/11 12:10:03;;;;;;;54.50;33.10;;;;;;;;;;5105912;28;20210;-62
2024/01/11 12:12:29;;;;;;;59.08;34.10;;;;;;;;;;5105092;28;20230;-63
2024/01/11 12:14:55;;;;;;;53.65;32.38;;;;;;;;;;5104926;28;20256;-62
2024/01/11 12:17:21;;;;;;;55.55;31.77;;;;;;;;;;5105741;27;20210;-63
2024/01/11 12:19:48;;;;;;;58.60;33.63;;;;;;;;;;5104574;28;20223;-63
2024/01/11 12:22:14;;;;;;;52.67;32.30;;;;;;;;;;5105196;28;20203;-63
2024/01/11 12:24:42;;;;;;;53.08;32.83;;;;;;;;;;5105011;28;20671;-62
2024/01/11 12:27:08;;;;;;;55.05;32.53;;;;;;;;;;5104398;28;20508;-62
2024/01/11 12:29:35;;;;;;;56.22;32.72;;;;;;;;;;5104564;28;20228;-62
2024/01/11 12:32:02;;;;;;;55.55;32.05;;;;;;;;;;5105225;28;20252;-63
2024/01/11 12:34:28;;;;;;;55.35;33.42;;;;;;;;;;5105156;28;20733;-63
2024/01/11 12:36:55;;;;;;;56.58;31.83;;;;;;;;;;5105171;28;20256;-62
2024/01/11 12:39:22;;;;;;;53.60;32.67;;;;;;;;;;5104257;28;20219;-63
2024/01/11 12:41:51;;;;;;;58.33;33.15;;;;;;;;;;5104758;28;20271;-60
2024/01/11 12:44:18;;;;;;;52.67;32.30;;;;;;;;;;5104312;28;20203;-62
2024/01/11 12:46:44;;;;;;;53.38;32.55;;;;;;;;;;5104239;28;20222;-61
2024/01/11 12:49:11;;;;;;;54.30;32.97;;;;;;;;;;5104404;28;20199;-61
2024/01/11 12:51:37;;;;;;;49.28;31.17;;;;;;;;;;5104500;28;20203;-63
2024/01/11 12:54:04;;;;;;;50.95;30.52;;;;;;;;;;5104675;28;20203;-62
2024/01/11 12:56:30;;;;;;;51.90;31.30;;;;;;;;;;5103751;28;20218;-62
2024/01/11 12:59:08;;;;;;;56.63;32.15;;;;;;;;;;5104102;28;20659;-63
2024/01/11 13:01:34;;;;;;;53.08;32.33;;;;;;;;;;5104055;28;20210;-63
2024/01/11 13:04:02;;;;;;;51.28;31.60;;;;;;;;;;5104594;28;20203;-62
2024/01/11 13:06:29;;;;;;;50.55;29.83;;;;;;;;;;5104414;28;20222;-61
2024/01/11 13:08:56;;;;;;;48.55;30.73;;;;;;;;;;5104150;28;20203;-61
2024/01/11 13:11:24;;;;;;;47.30;30.33;;;;;;;;;;5104131;28;20209;-63
2024/01/11 13:13:50;;;;;;;51.65;29.95;;;;;;;;;;5103885;28;20202;-63
2024/01/11 13:16:19;;;;;;;47.67;29.83;;;;;;;;;;5104296;28;20461;-64
2024/01/11 13:18:45;;;;;;;45.55;29.10;;;;;;;;;;5104635;28;20244;-64
2024/01/11 13:21:12;;;;;;;47.67;29.63;;;;;;;;;;5103785;28;21031;-64
2024/01/11 13:23:39;;;;;;;45.17;28.52;;;;;;;;;;5104257;28;20221;-62
2024/01/11 13:26:06;;;;;;;44.22;27.85;;;;;;;;;;5103590;28;20598;-62
2024/01/11 13:28:33;;;;;;;45.13;27.75;;;;;;;;;;5104114;28;20252;-61
2024/01/11 13:30:59;;;;;;;45.47;28.60;;;;;;;;;;5103909;28;20256;-61
2024/01/11 13:33:27;;;;;;;43.80;27.25;;;;;;;;;;5104065;28;20256;-62
2024/01/11 13:35:53;;;;;;;46.20;28.13;;;;;;;;;;5104843;28;20764;-63
2024/01/11 13:38:20;;;;;;;44.78;28.70;;;;;;;;;;5104504;28;20210;-63
2024/01/11 13:40:46;;;;;;;49.50;30.88;;;;;;;;;;5103030;28;20632;-63
2024/01/11 13:43:12;;;;;;;46.60;29.90;;;;;;;;;;5104480;28;20214;-63
2024/01/11 13:45:38;;;;;;;48.60;30.40;;;;;;;;;;5103925;28;20292;-62
2024/01/11 13:48:05;;;;;;;54.85;32.13;;;;;;;;;;5102197;28;20257;-63
2024/01/11 13:50:33;;;;;;;52.13;31.17;;;;;;;;;;5103903;28;20199;-64
2024/01/11 13:52:59;;;;;;;53.08;32.17;;;;;;;;;;5104266;28;20214;-64
2024/01/11 13:55:26;;;;;;;54.70;33.35;;;;;;;;;;5104312;28;20218;-64
2024/01/11 13:57:53;;;;;;;52.50;32.70;;;;;;;;;;5103792;28;20299;-65
2024/01/11 14:00:19;;;;;;;53.22;31.40;;;;;;;;;;5104044;28;20223;-65
2024/01/11 14:02:46;;;;;;;52.70;32.03;;;;;;;;;;5103772;28;20699;-64
2024/01/11 14:05:14;;;;;;;49.33;30.98;;;;;;;;;;5105655;28;20326;-63
2024/01/11 14:07:41;;;;;;;53.67;31.88;;;;;;;;;;5107729;28;20211;-61
2024/01/11 14:10:09;;;;;;;56.53;33.90;;;;;;;;;;5102077;28;20264;-64
2024/01/11 14:12:35;;;;;;;56.25;33.35;;;;;;;;;;5107739;27;20298;-63